Time;durP1;ratioP1;P1;durP2;ratioP2;P2;SDS_P1;SDS_P2;PMS_P1;PMS_P2;Temp;Humidity;BMP_temperature;BMP_pressure;BME280_temperature;BME280_humidity;BME280_pressure;Samples;Min_cycle;Max_cycle;Signal;HPM_P1;HPM_P2
2021/09/10 00:00:40;;;;;;;3.20;2.40;;;22.00;99.90;;;;;;2630974;54;20146;-81
2021/09/10 00:03:08;;;;;;;4.55;3.10;;;22.10;99.90;;;;;;2630486;54;20193;-80
2021/09/10 00:05:37;;;;;;;2.63;2.42;;;21.80;99.90;;;;;;2630808;54;20129;-79
2021/09/10 00:08:07;;;;;;;3.17;2.88;;;21.60;99.90;;;;;;2630694;47;20176;-80
2021/09/10 00:10:36;;;;;;;5.03;2.20;;;21.50;99.90;;;;;;2630603;47;20130;-80
2021/09/10 00:13:05;;;;;;;3.05;2.85;;;21.30;99.90;;;;;;2630645;51;20345;-79
2021/09/10 00:15:36;;;;;;;3.33;3.03;;;21.50;99.90;;;;;;2629652;47;20141;-81
2021/09/10 00:18:06;;;;;;;5.65;2.78;;;21.50;99.90;;;;;;2630771;54;20177;-79
2021/09/10 00:20:35;;;;;;;2.95;2.72;;;21.50;99.90;;;;;;2630568;51;20196;-78
2021/09/10 00:23:04;;;;;;;5.78;3.45;;;21.40;99.90;;;;;;2630037;54;20145;-80
2021/09/10 00:25:33;;;;;;;4.03;3.72;;;21.30;99.90;;;;;;2630730;47;21059;-79
2021/09/10 00:28:02;;;;;;;3.97;3.67;;;21.20;99.90;;;;;;2630917;47;20165;-80
2021/09/10 00:30:31;;;;;;;5.18;3.78;;;21.20;99.90;;;;;;2630815;47;20204;-79
2021/09/10 00:33:02;;;;;;;5.53;3.90;;;21.10;99.90;;;;;;2630704;47;20147;-80
2021/09/10 00:35:31;;;;;;;4.63;4.18;;;21.20;99.90;;;;;;2630610;47;20720;-78
2021/09/10 00:37:59;;;;;;;5.20;4.28;;;21.20;99.90;;;;;;2630321;47;20729;-78
2021/09/10 00:40:28;;;;;;;5.80;4.45;;;21.00;99.90;;;;;;2629872;47;20129;-75
2021/09/10 00:42:57;;;;;;;4.55;4.15;;;20.80;99.90;;;;;;2629502;54;20142;-78
2021/09/10 00:45:26;;;;;;;4.13;3.80;;;20.60;99.90;;;;;;2630255;47;20801;-79
2021/09/10 00:47:55;;;;;;;5.57;5.07;;;20.60;99.90;;;;;;2630418;47;20173;-80
2021/09/10 00:50:27;;;;;;;7.18;4.75;;;20.60;99.90;;;;;;2630733;47;20126;-78
2021/09/10 00:52:56;;;;;;;5.97;4.97;;;20.70;99.90;;;;;;2630541;47;20808;-79
2021/09/10 00:55:27;;;;;;;6.03;5.05;;;20.90;99.90;;;;;;2630481;47;20145;-79
2021/09/10 00:57:56;;;;;;;9.77;5.90;;;20.80;99.90;;;;;;2630261;47;20171;-79
2021/09/10 01:00:25;;;;;;;7.22;5.97;;;20.80;99.90;;;;;;2630664;47;20801;-77
2021/09/10 01:02:54;;;;;;;7.85;5.70;;;20.80;99.90;;;;;;2630731;47;20425;-78
2021/09/10 01:05:23;;;;;;;6.45;5.85;;;20.80;99.90;;;;;;2630602;54;20140;-79
2021/09/10 01:07:56;;;;;;;9.88;6.15;;;20.80;99.90;;;;;;2630483;47;20169;-79
2021/09/10 01:10:26;;;;;;;7.82;6.47;;;20.80;99.90;;;;;;2630591;47;20126;-79
2021/09/10 01:12:55;;;;;;;9.30;5.78;;;20.90;99.90;;;;;;2637162;46;20175;-79
2021/09/10 01:15:25;;;;;;;8.38;6.53;;;20.80;99.90;;;;;;2630425;54;20197;-79
2021/09/10 01:17:54;;;;;;;8.00;7.30;;;20.80;99.90;;;;;;2630552;47;20237;-79
2021/09/10 01:20:23;;;;;;;7.35;6.60;;;20.70;99.90;;;;;;2630424;47;20145;-77
2021/09/10 01:22:54;;;;;;;7.22;6.35;;;20.70;99.90;;;;;;2630901;47;20136;-79
2021/09/10 01:25:26;;;;;;;7.70;6.15;;;20.80;99.90;;;;;;2630967;51;20185;-79
2021/09/10 01:27:57;;;;;;;8.38;5.97;;;20.80;99.90;;;;;;2631232;47;20860;-79
2021/09/10 01:30:29;;;;;;;7.47;6.65;;;20.80;99.90;;;;;;2631393;47;20216;-79
2021/09/10 01:32:59;;;;;;;7.20;6.38;;;20.70;99.90;;;;;;2630966;54;20197;-79
2021/09/10 01:35:28;;;;;;;8.15;7.43;;;20.70;99.90;;;;;;2631029;54;20122;-78
2021/09/10 01:37:57;;;;;;;8.00;7.30;;;20.90;99.90;;;;;;2631165;54;20211;-80
2021/09/10 01:40:29;;;;;;;6.80;5.68;;;20.80;99.90;;;;;;2631191;47;20149;-79
2021/09/10 01:42:58;;;;;;;6.47;5.80;;;20.90;99.90;;;;;;2631454;47;20151;-80
2021/09/10 01:45:27;;;;;;;10.98;7.28;;;20.90;99.90;;;;;;2631350;47;20137;-79
2021/09/10 01:47:56;;;;;;;6.88;6.38;;;20.90;99.90;;;;;;2631330;47;20157;-80
2021/09/10 01:50:25;;;;;;;8.15;6.43;;;20.80;99.90;;;;;;2631374;47;20188;-81
2021/09/10 01:52:54;;;;;;;7.40;6.45;;;20.90;99.90;;;;;;2631229;47;20193;-80
2021/09/10 01:55:23;;;;;;;10.82;7.00;;;20.90;99.90;;;;;;2631235;46;20141;-80
2021/09/10 01:57:55;;;;;;;9.05;8.15;;;20.90;99.90;;;;;;2631256;54;20192;-80
2021/09/10 02:00:23;;;;;;;7.97;7.28;;;20.90;99.90;;;;;;2631433;54;20176;-81
2021/09/10 02:02:53;;;;;;;7.00;6.35;;;21.00;99.90;;;;;;2634965;31;20717;-80
2021/09/10 02:05:21;;;;;;;7.05;6.47;;;21.20;99.90;;;;;;2631267;46;20193;-81
2021/09/10 02:07:50;;;;;;;9.05;7.55;;;21.00;99.90;;;;;;2631211;54;20157;-80
2021/09/10 02:10:20;;;;;;;12.10;8.20;;;21.20;99.90;;;;;;2631170;47;20136;-81
2021/09/10 02:12:49;;;;;;;8.50;7.70;;;21.30;99.90;;;;;;2631227;46;20181;-81
2021/09/10 02:15:20;;;;;;;8.43;7.20;;;21.20;99.90;;;;;;2631064;47;20130;-80
2021/09/10 02:17:49;;;;;;;9.80;8.40;;;21.10;99.90;;;;;;2631363;54;20175;-81
2021/09/10 02:20:18;;;;;;;10.10;9.13;;;21.00;99.90;;;;;;2630179;47;20174;-79
2021/09/10 02:22:47;;;;;;;9.13;8.20;;;21.10;99.90;;;;;;2631162;54;20269;-81
2021/09/10 02:25:16;;;;;;;9.05;8.00;;;21.00;99.90;;;;;;2631175;54;20143;-78
2021/09/10 02:27:45;;;;;;;8.00;7.20;;;21.00;99.90;;;;;;2631151;54;20193;-81
2021/09/10 02:30:14;;;;;;;7.25;6.65;;;20.90;99.90;;;;;;2631233;47;20218;-79
2021/09/10 02:32:46;;;;;;;9.70;7.68;;;20.80;99.90;;;;;;2631246;47;20141;-80
2021/09/10 02:35:14;;;;;;;7.40;6.75;;;20.90;99.90;;;;;;2630904;47;20132;-79
2021/09/10 02:37:43;;;;;;;10.35;7.45;;;20.80;99.90;;;;;;2640009;39;20901;-80
2021/09/10 02:40:13;;;;;;;10.00;9.13;;;20.80;99.90;;;;;;2631289;54;20178;-81
2021/09/10 02:42:42;;;;;;;9.27;8.20;;;20.80;99.90;;;;;;2630867;54;20158;-79
2021/09/10 02:45:12;;;;;;;8.23;7.45;;;20.70;99.90;;;;;;2630978;47;20130;-79
2021/09/10 02:47:41;;;;;;;9.57;8.68;;;20.70;99.90;;;;;;2633789;39;20629;-79
2021/09/10 02:50:13;;;;;;;8.63;7.78;;;20.50;99.90;;;;;;2631162;54;20141;-80
2021/09/10 02:52:43;;;;;;;9.35;8.55;;;20.60;99.90;;;;;;2631002;54;20167;-79
2021/09/10 02:55:13;;;;;;;9.82;8.77;;;20.70;99.90;;;;;;2630987;47;20937;-79
2021/09/10 02:57:42;;;;;;;8.45;7.55;;;20.70;99.90;;;;;;2630792;47;20161;-79
2021/09/10 03:00:13;;;;;;;9.57;8.13;;;20.60;99.90;;;;;;2631015;54;20133;-79
2021/09/10 03:02:43;;;;;;;8.77;7.97;;;20.50;99.90;;;;;;2630975;46;20145;-80
2021/09/10 03:05:16;;;;;;;9.15;8.38;;;20.50;99.90;;;;;;2637413;39;20656;-79
2021/09/10 03:07:45;;;;;;;8.35;7.55;;;20.50;99.90;;;;;;2631127;54;20168;-80
2021/09/10 03:10:14;;;;;;;8.77;7.88;;;20.50;99.90;;;;;;2631115;47;20145;-81
2021/09/10 03:12:43;;;;;;;8.10;7.47;;;20.50;99.90;;;;;;2630879;46;20126;-80
2021/09/10 03:15:14;;;;;;;9.27;8.38;;;20.50;99.90;;;;;;2630987;54;20149;-80
2021/09/10 03:17:43;;;;;;;10.40;9.43;;;20.60;99.90;;;;;;2630518;47;20165;-80
2021/09/10 03:20:16;;;;;;;12.93;10.50;;;20.60;99.90;;;;;;2630054;47;20714;-77
2021/09/10 03:22:45;;;;;;;10.05;9.05;;;20.40;99.90;;;;;;2629190;47;20169;-78
2021/09/10 03:25:13;;;;;;;39.33;15.90;;;20.40;99.90;;;;;;2625299;47;20146;-77
2021/09/10 03:27:42;;;;;;;22.75;13.18;;;20.50;99.90;;;;;;2626154;54;20161;-77
2021/09/10 03:30:13;;;;;;;23.33;15.50;;;20.40;99.90;;;;;;2626369;47;20165;-77
2021/09/10 03:32:42;;;;;;;16.38;14.75;;;20.20;99.90;;;;;;2625260;54;20142;-76
2021/09/10 03:35:12;;;;;;;15.48;12.73;;;20.20;99.90;;;;;;2624537;54;20160;-76
2021/09/10 03:37:43;;;;;;;16.35;14.55;;;20.00;99.90;;;;;;2624572;47;20173;-76
2021/09/10 03:40:14;;;;;;;16.02;12.98;;;20.10;99.90;;;;;;2625012;54;20141;-77
2021/09/10 03:42:42;;;;;;;16.90;14.18;;;20.20;99.90;;;;;;2624380;47;20149;-77
2021/09/10 03:45:12;;;;;;;15.10;13.50;;;20.30;99.90;;;;;;2624891;54;20153;-77
2021/09/10 03:47:41;;;;;;;14.30;12.88;;;20.40;99.90;;;;;;2626418;54;20169;-77
2021/09/10 03:50:10;;;;;;;15.82;14.13;;;20.30;99.90;;;;;;2626877;47;20155;-77
2021/09/10 03:52:39;;;;;;;13.50;12.23;;;20.30;99.90;;;;;;2625905;54;20145;-76
2021/09/10 03:55:14;;;;;;;13.75;12.30;;;20.30;99.90;;;;;;2626138;54;20156;-78
2021/09/10 03:57:44;;;;;;;13.15;11.85;;;20.10;99.90;;;;;;2629503;46;20184;-78
2021/09/10 04:00:14;;;;;;;13.23;12.00;;;20.10;99.90;;;;;;2630712;47;20156;-78
2021/09/10 04:02:43;;;;;;;13.05;9.98;;;20.00;99.90;;;;;;2630882;54;20164;-78
2021/09/10 04:05:13;;;;;;;11.30;10.25;;;20.20;99.90;;;;;;2630835;54;20156;-78
2021/09/10 04:07:43;;;;;;;12.73;10.23;;;20.20;99.90;;;;;;2638513;39;20867;-79
2021/09/10 04:10:15;;;;;;;10.68;9.57;;;20.20;99.90;;;;;;2630644;47;20133;-78
2021/09/10 04:12:44;;;;;;;10.30;8.85;;;20.20;99.90;;;;;;2630623;54;20177;-78
2021/09/10 04:15:13;;;;;;;10.57;8.98;;;20.20;99.90;;;;;;2630658;47;20130;-78
2021/09/10 04:17:42;;;;;;;11.13;9.98;;;20.20;99.90;;;;;;2630836;54;20232;-79
2021/09/10 04:20:13;;;;;;;10.77;9.68;;;20.20;99.90;;;;;;2630838;54;20152;-78
2021/09/10 04:22:42;;;;;;;9.48;8.65;;;20.20;99.90;;;;;;2630630;47;20130;-78
2021/09/10 04:25:11;;;;;;;12.23;9.48;;;20.30;99.90;;;;;;2630726;46;20145;-80
2021/09/10 04:27:43;;;;;;;10.70;9.60;;;20.30;99.90;;;;;;2630829;47;20175;-79
2021/09/10 04:30:13;;;;;;;9.70;8.55;;;20.20;99.90;;;;;;2630861;54;20137;-78
2021/09/10 04:32:42;;;;;;;9.90;9.00;;;20.20;99.90;;;;;;2630845;47;20130;-79
2021/09/10 04:35:14;;;;;;;10.68;9.63;;;20.20;99.90;;;;;;2630581;47;20148;-78
2021/09/10 04:37:44;;;;;;;10.60;9.60;;;20.20;99.90;;;;;;2630674;54;20168;-78
2021/09/10 04:40:15;;;;;;;12.77;11.50;;;20.20;99.90;;;;;;2630773;47;20142;-79
2021/09/10 04:42:46;;;;;;;11.50;10.35;;;20.30;99.90;;;;;;2630794;47;20229;-79
2021/09/10 04:45:15;;;;;;;10.15;9.20;;;20.60;99.90;;;;;;2630580;54;20464;-78
2021/09/10 04:47:44;;;;;;;10.45;9.23;;;20.50;99.90;;;;;;2630644;47;20169;-78
2021/09/10 04:50:14;;;;;;;9.75;8.75;;;20.30;99.90;;;;;;2630766;47;20132;-79
2021/09/10 04:52:43;;;;;;;10.27;9.05;;;20.10;99.90;;;;;;2630539;54;20137;-79
2021/09/10 04:55:14;;;;;;;18.83;15.13;;;20.10;99.90;;;;;;2630556;54;20149;-78
2021/09/10 04:57:46;;;;;;;12.95;11.55;;;20.10;99.90;;;;;;2631526;54;20469;-77
2021/09/10 05:00:16;;;;;;;9.88;9.00;;;20.20;99.90;;;;;;2631524;54;20217;-79
2021/09/10 05:02:44;;;;;;;10.68;9.68;;;20.30;99.90;;;;;;2631249;47;20920;-79
2021/09/10 05:05:14;;;;;;;10.40;9.35;;;20.50;99.90;;;;;;2631349;54;20145;-78
2021/09/10 05:07:42;;;;;;;9.82;8.98;;;20.80;99.90;;;;;;2631513;54;20169;-78
2021/09/10 05:10:12;;;;;;;16.15;8.93;;;20.80;99.90;;;;;;2631516;47;20136;-78
2021/09/10 05:12:41;;;;;;;10.35;9.13;;;20.60;99.90;;;;;;2631409;54;20153;-79
2021/09/10 05:15:13;;;;;;;9.13;8.25;;;20.30;99.90;;;;;;2631280;47;20145;-80
2021/09/10 05:17:42;;;;;;;8.82;8.00;;;20.30;99.90;;;;;;2631509;54;20183;-80
2021/09/10 05:20:13;;;;;;;8.75;7.95;;;20.20;99.90;;;;;;2631320;54;20136;-78
2021/09/10 05:22:42;;;;;;;9.35;8.55;;;20.20;99.90;;;;;;2631322;47;20149;-79
2021/09/10 05:25:12;;;;;;;11.45;9.75;;;20.30;99.90;;;;;;2631294;47;20126;-79
2021/09/10 05:27:41;;;;;;;9.00;8.20;;;20.30;99.90;;;;;;2631462;47;20165;-79
2021/09/10 05:30:13;;;;;;;8.85;8.05;;;20.40;99.90;;;;;;2631401;54;20137;-79
2021/09/10 05:32:42;;;;;;;9.82;8.93;;;20.30;99.90;;;;;;2631498;46;20161;-79
2021/09/10 05:35:14;;;;;;;11.02;9.93;;;20.40;99.90;;;;;;2631307;47;20148;-80
2021/09/10 05:37:42;;;;;;;11.35;10.20;;;20.60;99.90;;;;;;2631341;46;20145;-79
2021/09/10 05:40:13;;;;;;;13.63;9.30;;;20.90;99.90;;;;;;2633688;39;20913;-79
2021/09/10 05:42:42;;;;;;;14.60;13.20;;;20.70;99.90;;;;;;2631471;46;20948;-79
2021/09/10 05:45:14;;;;;;;8.52;7.90;;;20.50;99.90;;;;;;2631302;54;20136;-81
2021/09/10 05:47:42;;;;;;;9.32;8.52;;;20.40;99.90;;;;;;2631312;54;20196;-79
2021/09/10 05:50:13;;;;;;;11.88;10.55;;;20.40;99.90;;;;;;2631318;47;20185;-80
2021/09/10 05:52:42;;;;;;;10.80;9.77;;;20.30;99.90;;;;;;2631390;47;20147;-80
2021/09/10 05:55:11;;;;;;;13.00;11.75;;;20.40;99.90;;;;;;2631191;54;20149;-79
2021/09/10 05:57:40;;;;;;;9.68;8.73;;;20.40;99.90;;;;;;2644906;31;20966;-80
2021/09/10 06:00:10;;;;;;;10.90;9.93;;;20.50;99.90;;;;;;2631331;54;20149;-80
2021/09/10 06:02:44;;;;;;;12.40;11.10;;;20.40;99.90;;;;;;2631351;47;20134;-80
2021/09/10 06:05:13;;;;;;;9.68;8.73;;;20.30;99.90;;;;;;2631252;46;20146;-81
2021/09/10 06:07:42;;;;;;;8.82;7.93;;;20.30;99.90;;;;;;2630993;54;20299;-78
2021/09/10 06:10:13;;;;;;;14.77;13.38;;;20.30;99.90;;;;;;2631357;54;20160;-78
2021/09/10 06:12:42;;;;;;;18.75;16.98;;;20.30;99.90;;;;;;2631316;47;20134;-79
2021/09/10 06:15:12;;;;;;;12.45;10.15;;;20.30;99.90;;;;;;2630981;47;20189;-79
2021/09/10 06:17:44;;;;;;;10.93;9.68;;;20.10;99.90;;;;;;2631351;46;21045;-81
2021/09/10 06:20:14;;;;;;;11.43;10.32;;;20.30;99.90;;;;;;2631366;54;20201;-80
2021/09/10 06:22:43;;;;;;;12.18;8.95;;;20.20;99.90;;;;;;2631267;54;20140;-80
2021/09/10 06:25:12;;;;;;;10.50;9.35;;;20.10;99.90;;;;;;2631129;47;20197;-79
2021/09/10 06:27:42;;;;;;;10.13;9.15;;;20.20;99.90;;;;;;2630931;46;20188;-80
2021/09/10 06:30:12;;;;;;;12.13;11.02;;;20.30;99.90;;;;;;2631071;47;20160;-79
2021/09/10 06:32:44;;;;;;;10.35;9.35;;;20.30;99.90;;;;;;2631322;54;20182;-81
2021/09/10 06:35:13;;;;;;;10.57;9.57;;;20.30;99.90;;;;;;2631176;54;20954;-81
2021/09/10 06:37:42;;;;;;;11.43;10.32;;;20.40;99.90;;;;;;2631310;46;20145;-80
2021/09/10 06:40:12;;;;;;;8.23;7.50;;;20.40;99.90;;;;;;2631186;47;20915;-80
2021/09/10 06:42:42;;;;;;;11.18;10.15;;;20.40;99.90;;;;;;2631191;54;20903;-82
2021/09/10 06:45:12;;;;;;;10.02;9.13;;;20.50;99.90;;;;;;2631180;47;20134;-81
2021/09/10 06:47:43;;;;;;;10.43;9.43;;;20.50;99.90;;;;;;2631130;54;20161;-81
2021/09/10 06:50:13;;;;;;;10.93;9.82;;;20.60;99.90;;;;;;2631476;47;20177;-79
2021/09/10 06:52:45;;;;;;;12.52;10.68;;;20.70;99.90;;;;;;2630927;54;20958;-80
2021/09/10 06:55:14;;;;;;;11.65;10.13;;;20.90;99.90;;;;;;2631016;47;20927;-80
2021/09/10 06:57:42;;;;;;;12.73;11.43;;;20.90;99.90;;;;;;2631149;47;20160;-81
2021/09/10 07:00:14;;;;;;;12.30;10.57;;;21.10;99.90;;;;;;2631121;54;20185;-79
2021/09/10 07:02:46;;;;;;;11.35;10.35;;;21.10;99.90;;;;;;2630465;54;20257;-81
2021/09/10 07:05:15;;;;;;;13.05;11.77;;;21.00;99.90;;;;;;2630850;54;20156;-81
2021/09/10 07:07:44;;;;;;;11.68;10.68;;;21.00;99.90;;;;;;2630975;47;20197;-79
2021/09/10 07:10:13;;;;;;;13.15;11.35;;;21.10;99.90;;;;;;2628334;54;20844;-80
2021/09/10 07:12:42;;;;;;;14.52;12.63;;;21.00;99.90;;;;;;2629906;54;20301;-81
2021/09/10 07:15:12;;;;;;;14.45;13.13;;;20.90;99.90;;;;;;2630141;47;20153;-80
2021/09/10 07:17:40;;;;;;;15.57;12.77;;;21.10;99.90;;;;;;2630130;47;20208;-81
2021/09/10 07:20:13;;;;;;;14.65;11.88;;;21.00;99.90;;;;;;2629852;47;20149;-81
2021/09/10 07:22:42;;;;;;;12.68;11.55;;;20.90;99.90;;;;;;2630268;47;20149;-81
2021/09/10 07:25:12;;;;;;;14.18;12.88;;;21.00;99.90;;;;;;2630531;47;20182;-80
2021/09/10 07:27:41;;;;;;;11.82;10.75;;;21.00;99.90;;;;;;2630065;54;20237;-81
2021/09/10 07:30:12;;;;;;;13.15;12.02;;;21.20;99.90;;;;;;2630118;47;20164;-81
2021/09/10 07:32:42;;;;;;;13.65;12.35;;;21.20;99.90;;;;;;2630432;47;20141;-82
2021/09/10 07:35:14;;;;;;;12.90;11.02;;;21.30;99.90;;;;;;2630320;46;20164;-81
2021/09/10 07:37:45;;;;;;;14.80;13.20;;;21.20;99.90;;;;;;2630654;54;20164;-83
2021/09/10 07:40:14;;;;;;;13.38;12.05;;;21.30;99.90;;;;;;2630606;54;20196;-83
2021/09/10 07:42:43;;;;;;;13.07;11.88;;;21.30;99.90;;;;;;2630501;54;20265;-82
2021/09/10 07:45:14;;;;;;;13.95;11.80;;;21.30;99.90;;;;;;2630130;47;20130;-82
2021/09/10 07:47:43;;;;;;;10.65;9.77;;;21.40;99.90;;;;;;2630390;47;20176;-82
2021/09/10 07:50:15;;;;;;;11.10;10.07;;;21.40;99.90;;;;;;2631637;46;20165;-82
2021/09/10 07:52:43;;;;;;;11.27;10.25;;;21.60;99.90;;;;;;2630416;47;20149;-80
2021/09/10 07:55:13;;;;;;;12.20;11.10;;;21.80;99.90;;;;;;2630150;54;20129;-81
2021/09/10 07:57:42;;;;;;;11.57;10.52;;;21.90;99.90;;;;;;2630296;46;20171;-81
2021/09/10 08:00:11;;;;;;;12.65;11.38;;;22.00;99.90;;;;;;2630403;47;20140;-80
2021/09/10 08:02:40;;;;;;;13.27;12.07;;;22.20;99.90;;;;;;2630346;54;20153;-81
2021/09/10 08:05:10;;;;;;;10.95;9.85;;;22.10;99.90;;;;;;2630279;47;20129;-81
2021/09/10 08:07:41;;;;;;;13.15;11.88;;;22.20;99.90;;;;;;2630438;47;20183;-82
2021/09/10 08:10:13;;;;;;;12.13;10.90;;;22.10;99.90;;;;;;2630273;54;20209;-80
2021/09/10 08:12:43;;;;;;;12.65;11.65;;;22.30;99.90;;;;;;2630374;46;20151;-81
2021/09/10 08:15:13;;;;;;;12.95;11.63;;;22.50;99.90;;;;;;2630713;46;20145;-80
2021/09/10 08:17:42;;;;;;;9.75;8.80;;;22.60;99.90;;;;;;2630384;47;20180;-81
2021/09/10 08:20:13;;;;;;;10.10;9.20;;;22.50;99.90;;;;;;2630189;54;20156;-80
2021/09/10 08:22:46;;;;;;;10.02;8.32;;;22.50;99.90;;;;;;2629915;47;20150;-78
2021/09/10 08:25:17;;;;;;;8.18;7.32;;;22.50;99.90;;;;;;2630201;47;20136;-79
2021/09/10 08:27:46;;;;;;;8.85;8.15;;;22.90;99.90;;;;;;2629907;47;20180;-80
2021/09/10 08:30:15;;;;;;;8.20;7.50;;;23.00;99.90;;;;;;2629585;47;20151;-80
2021/09/10 08:32:44;;;;;;;8.65;7.03;;;23.10;99.90;;;;;;2630255;47;20177;-80
2021/09/10 08:35:13;;;;;;;10.50;9.27;;;23.10;99.90;;;;;;2630239;39;20861;-80
2021/09/10 08:37:44;;;;;;;10.88;9.65;;;23.10;99.90;;;;;;2629639;47;20165;-81
2021/09/10 08:40:13;;;;;;;9.70;8.80;;;23.40;99.90;;;;;;2629756;47;20201;-81
2021/09/10 08:42:42;;;;;;;10.20;9.20;;;23.10;99.90;;;;;;2629917;47;20142;-81
2021/09/10 08:45:12;;;;;;;9.18;8.35;;;23.00;99.90;;;;;;2629840;47;20145;-81
2021/09/10 08:47:42;;;;;;;9.18;8.38;;;23.10;99.90;;;;;;2629824;47;20236;-80
2021/09/10 08:50:11;;;;;;;9.32;8.52;;;23.30;99.90;;;;;;2630005;54;20144;-81
2021/09/10 08:52:41;;;;;;;8.85;8.05;;;23.50;99.90;;;;;;2630053;47;20213;-79
2021/09/10 08:55:16;;;;;;;9.10;8.30;;;23.60;99.90;;;;;;2630047;47;20192;-80
2021/09/10 08:57:55;;;;;;;11.15;9.23;;;23.50;99.90;;;;;;2629616;54;20220;-80
2021/09/10 09:00:30;;;;;;;9.20;8.45;;;23.40;99.90;;;;;;2629693;54;20129;-80
2021/09/10 09:03:01;;;;;;;8.40;7.60;;;23.50;99.90;;;;;;2630644;39;20834;-80
2021/09/10 09:05:31;;;;;;;10.63;8.65;;;23.50;99.90;;;;;;2630054;47;20145;-81
2021/09/10 09:08:10;;;;;;;10.23;9.23;;;23.50;99.90;;;;;;2630025;47;20161;-79
2021/09/10 09:10:59;;;;;;;10.77;9.60;;;23.60;99.90;;;;;;2630640;39;20885;-81
2021/09/10 09:13:30;;;;;;;9.70;8.85;;;23.60;99.90;;;;;;2631830;46;20249;-80
2021/09/10 09:16:23;;;;;;;9.65;8.70;;;23.50;99.90;;;;;;2631650;46;20161;-81
2021/09/10 09:18:54;;;;;;;9.77;8.77;;;23.60;99.90;;;;;;2629690;54;20213;-79
2021/09/10 09:21:28;;;;;;;11.15;9.85;;;23.70;99.90;;;;;;2629622;47;20201;-79
2021/09/10 09:23:58;;;;;;;13.20;10.90;;;23.90;99.90;;;;;;2629824;47;20142;-79
2021/09/10 09:26:32;;;;;;;12.73;11.40;;;23.90;99.90;;;;;;2629949;47;20126;-79
2021/09/10 09:29:06;;;;;;;12.98;10.90;;;23.90;99.90;;;;;;2629672;54;20237;-79
2021/09/10 09:31:35;;;;;;;11.73;10.55;;;23.70;99.90;;;;;;2629542;54;20176;-79
2021/09/10 09:34:04;;;;;;;13.45;11.52;;;23.70;99.90;;;;;;2629667;47;20202;-79
2021/09/10 09:36:34;;;;;;;12.57;11.57;;;23.60;99.90;;;;;;2629793;54;20179;-81
2021/09/10 09:39:12;;;;;;;12.05;10.40;;;23.80;99.90;;;;;;2629756;39;20340;-79
2021/09/10 09:41:46;;;;;;;16.42;11.45;;;24.00;99.90;;;;;;2629799;54;20148;-80
2021/09/10 09:44:17;;;;;;;12.63;11.00;;;24.40;99.90;;;;;;2630363;54;20137;-79
2021/09/10 09:47:01;;;;;;;12.10;10.90;;;24.60;99.90;;;;;;2630516;46;20165;-77
2021/09/10 09:49:30;;;;;;;12.38;11.27;;;24.70;99.90;;;;;;2630597;47;20230;-80
2021/09/10 09:52:00;;;;;;;12.02;10.90;;;24.90;99.90;;;;;;2630707;47;20146;-83
2021/09/10 09:54:29;;;;;;;11.98;10.77;;;24.50;99.90;;;;;;2630613;47;20186;-82
2021/09/10 09:57:01;;;;;;;11.80;10.60;;;24.50;99.90;;;;;;2630831;54;20178;-81
2021/09/10 09:59:32;;;;;;;14.50;12.20;;;24.70;99.90;;;;;;2618471;46;20278;-42
2021/09/10 10:02:01;;;;;;;11.20;10.05;;;25.00;99.90;;;;;;2617475;54;20191;-42
2021/09/10 10:04:30;;;;;;;11.18;10.20;;;25.10;99.90;;;;;;2617191;54;20654;-41
2021/09/10 10:07:01;;;;;;;11.38;10.27;;;25.20;99.90;;;;;;2617361;39;20546;-43
2021/09/10 10:09:30;;;;;;;11.00;10.07;;;25.20;99.90;;;;;;2616588;47;20172;-41
2021/09/10 10:12:05;;;;;;;10.40;9.43;;;25.40;99.90;;;;;;2620067;54;20221;-42
2021/09/10 10:14:36;;;;;;;13.02;11.77;;;25.70;99.90;;;;;;2619097;54;20146;-42
2021/09/10 10:17:06;;;;;;;10.35;9.35;;;25.70;99.90;;;;;;2619550;46;20813;-42
2021/09/10 10:19:46;;;;;;;12.90;11.70;;;25.60;99.90;;;;;;2620410;54;20188;-42
2021/09/10 10:22:17;;;;;;;13.32;11.90;;;25.50;99.90;;;;;;2619959;54;20164;-41
2021/09/10 10:24:49;;;;;;;12.60;11.35;;;25.50;99.90;;;;;;2620459;54;20156;-40
2021/09/10 10:27:35;;;;;;;13.07;11.77;;;25.30;99.90;;;;;;2620603;54;20279;-43
2021/09/10 10:30:06;;;;;;;12.73;11.40;;;25.40;99.90;;;;;;2620093;54;20261;-42
2021/09/10 10:32:40;;;;;;;14.50;12.85;;;25.60;99.90;;;;;;2620603;54;20153;-41
2021/09/10 10:35:26;;;;;;;15.05;13.65;;;25.60;99.90;;;;;;2620539;54;20160;-41
2021/09/10 10:37:57;;;;;;;13.32;11.93;;;25.90;99.90;;;;;;2621281;54;20148;-41
2021/09/10 10:40:29;;;;;;;11.57;10.48;;;26.00;99.90;;;;;;2620969;54;20177;-43
2021/09/10 10:43:03;;;;;;;14.20;11.93;;;26.00;99.90;;;;;;2621351;47;20743;-43
2021/09/10 10:46:02;;;;;;;13.25;11.95;;;26.10;99.90;;;;;;2620867;54;20156;-42
2021/09/10 10:48:50;;;;;;;12.48;11.27;;;26.30;99.90;;;;;;2620728;54;20188;-42
2021/09/10 10:51:41;;;;;;;13.23;11.88;;;26.40;99.90;;;;;;2621079;54;20192;-41
2021/09/10 10:54:17;;;;;;;12.70;11.40;;;26.70;99.90;;;;;;2619887;54;20146;-41
2021/09/10 10:56:50;;;;;;;13.75;12.27;;;26.50;99.90;;;;;;2620996;54;20149;-41
2021/09/10 10:59:39;;;;;;;12.60;11.40;;;26.80;99.90;;;;;;2620900;54;20185;-41
2021/09/10 11:02:39;;;;;;;13.68;12.27;;;26.80;99.90;;;;;;2620734;54;20204;-41
2021/09/10 11:05:20;;;;;;;13.60;12.27;;;26.60;99.90;;;;;;2619601;54;20528;-42
2021/09/10 11:07:49;;;;;;;12.45;11.27;;;26.40;99.90;;;;;;2617192;46;20157;-42
2021/09/10 11:10:21;;;;;;;14.77;13.20;;;26.20;99.90;;;;;;2619498;39;20628;-42
2021/09/10 11:12:51;;;;;;;15.57;12.02;;;26.50;99.90;;;;;;2618592;54;20141;-42
2021/09/10 11:15:26;;;;;;;12.75;11.55;;;26.50;99.90;;;;;;2616656;54;20141;-43
2021/09/10 11:18:00;;;;;;;13.30;11.90;;;26.50;99.90;;;;;;2616396;54;20145;-43
2021/09/10 11:20:38;;;;;;;12.82;11.50;;;26.30;99.90;;;;;;2616458;54;20173;-42
2021/09/10 11:23:08;;;;;;;13.60;11.85;;;26.10;99.90;;;;;;2616627;54;20173;-43
2021/09/10 11:25:44;;;;;;;10.82;9.88;;;26.00;99.90;;;;;;2616946;39;20239;-42
2021/09/10 11:28:14;;;;;;;12.45;11.40;;;25.90;99.90;;;;;;2616618;54;20272;-42
2021/09/10 11:30:47;;;;;;;12.68;11.40;;;25.70;99.90;;;;;;2616340;54;20184;-43
2021/09/10 11:33:15;;;;;;;10.50;9.50;;;25.40;99.90;;;;;;2616316;54;20142;-43
2021/09/10 11:35:44;;;;;;;11.43;10.32;;;25.30;99.90;;;;;;2616722;54;20666;-42
2021/09/10 11:38:16;;;;;;;12.60;11.52;;;25.20;99.90;;;;;;2616611;54;20145;-44
2021/09/10 11:40:47;;;;;;;13.13;11.82;;;25.50;99.90;;;;;;2616444;54;20169;-42
2021/09/10 11:43:19;;;;;;;12.95;11.35;;;25.50;99.90;;;;;;2615857;54;20683;-42
2021/09/10 11:45:56;;;;;;;10.82;9.70;;;25.60;99.90;;;;;;2616381;54;20159;-41
2021/09/10 11:48:28;;;;;;;10.98;9.88;;;25.40;99.90;;;;;;2616533;54;20144;-41
2021/09/10 11:50:59;;;;;;;11.68;10.55;;;25.40;99.90;;;;;;2615954;54;20177;-42
2021/09/10 11:53:30;;;;;;;11.23;10.27;;;25.50;99.90;;;;;;2616192;54;20257;-44
2021/09/10 11:56:03;;;;;;;13.88;12.52;;;25.60;99.90;;;;;;2616736;54;20172;-42
2021/09/10 11:58:37;;;;;;;15.32;13.88;;;25.30;99.90;;;;;;2615413;54;20814;-42
2021/09/10 12:01:23;;;;;;;13.75;12.43;;;25.10;99.90;;;;;;2615692;54;20486;-43
2021/09/10 12:03:55;;;;;;;11.75;10.00;;;25.00;99.90;;;;;;2615757;54;20172;-43
2021/09/10 12:06:27;;;;;;;12.82;11.70;;;24.90;99.90;;;;;;2616464;46;20678;-43
2021/09/10 12:09:13;;;;;;;14.77;13.35;;;24.90;99.90;;;;;;2616108;54;20134;-42
2021/09/10 12:12:08;;;;;;;14.88;13.48;;;25.30;99.90;;;;;;2616067;54;20164;-43
2021/09/10 12:14:43;;;;;;;14.70;13.20;;;25.50;99.90;;;;;;2616273;54;20291;-42
2021/09/10 12:17:18;;;;;;;15.60;14.07;;;25.40;99.90;;;;;;2615771;54;20670;-43
2021/09/10 12:20:10;;;;;;;13.25;12.05;;;25.30;99.90;;;;;;2615908;54;20145;-42
2021/09/10 12:23:04;;;;;;;15.75;14.43;;;25.20;99.90;;;;;;2616046;47;20698;-43
2021/09/10 12:25:49;;;;;;;13.05;11.95;;;25.40;99.90;;;;;;2615721;54;20149;-41
2021/09/10 12:28:22;;;;;;;16.20;13.90;;;25.30;99.90;;;;;;2615941;54;20161;-41
2021/09/10 12:30:57;;;;;;;13.73;12.52;;;25.40;99.90;;;;;;2615948;54;20173;-42
2021/09/10 12:33:31;;;;;;;13.98;12.65;;;25.50;99.90;;;;;;2616055;54;20156;-43
2021/09/10 12:36:03;;;;;;;13.90;12.57;;;25.40;99.90;;;;;;2616261;54;20146;-43
2021/09/10 12:38:35;;;;;;;14.10;12.70;;;25.20;99.90;;;;;;2616250;54;20702;-42
2021/09/10 12:41:07;;;;;;;13.93;12.55;;;25.20;99.90;;;;;;2616216;47;20875;-43
2021/09/10 12:43:39;;;;;;;14.82;13.32;;;25.20;99.90;;;;;;2616125;54;20148;-42
2021/09/10 12:46:09;;;;;;;16.75;15.20;;;25.30;99.90;;;;;;2616490;46;20153;-41
2021/09/10 12:48:41;;;;;;;14.90;13.60;;;25.20;99.90;;;;;;2616442;54;20137;-42
2021/09/10 12:51:09;;;;;;;14.93;13.48;;;25.00;99.90;;;;;;2617314;54;20176;-42
2021/09/10 12:53:41;;;;;;;12.13;11.02;;;25.00;99.90;;;;;;2617814;54;20153;-42
2021/09/10 12:56:11;;;;;;;14.57;13.18;;;25.00;99.90;;;;;;2616479;54;20160;-41